Time;durP1;ratioP1;P1;durP2;ratioP2;P2;SDS_P1;SDS_P2;PMS_P1;PMS_P2;Temp;Humidity;BMP_temperature;BMP_pressure;BME280_temperature;BME280_humidity;BME280_pressure;Samples;Min_cycle;Max_cycle;Signal;HPM_P1;HPM_P2
2023/03/18 00:01:15;;;;;;;7.27;2.80;;;11.70;99.90;;;;;;5045881;28;20424;-66
2023/03/18 00:03:41;;;;;;;8.20;3.45;;;11.70;99.90;;;;;;5042310;28;20431;-66
2023/03/18 00:06:12;;;;;;;7.60;2.97;;;11.70;99.90;;;;;;5046253;28;20469;-66
2023/03/18 00:08:41;;;;;;;7.17;3.10;;;11.70;99.90;;;;;;5042720;28;20419;-66
2023/03/18 00:11:09;;;;;;;7.43;3.00;;;11.60;99.90;;;;;;5045760;28;20421;-67
2023/03/18 00:13:37;;;;;;;6.37;2.90;;;11.60;1.00;;;;;;5042016;28;20499;-66
2023/03/18 00:16:06;;;;;;;6.70;2.75;;;11.70;1.00;;;;;;5048523;28;20425;-66
2023/03/18 00:18:33;;;;;;;7.38;3.00;;;11.70;1.00;;;;;;5045677;28;20417;-66
2023/03/18 00:21:00;;;;;;;6.97;2.73;;;11.70;1.00;;;;;;5043743;28;20917;-66
2023/03/18 00:23:28;;;;;;;6.22;3.00;;;11.60;1.00;;;;;;5051711;28;20489;-66
2023/03/18 00:25:57;;;;;;;6.65;2.70;;;11.60;1.00;;;;;;5048534;28;20416;-66
2023/03/18 00:28:24;;;;;;;7.18;2.70;;;11.50;1.00;;;;;;5043618;28;20413;-67
2023/03/18 00:30:51;;;;;;;6.57;2.67;;;11.50;1.00;;;;;;5042165;28;20489;-66
2023/03/18 00:33:18;;;;;;;4.80;2.60;;;11.50;1.00;;;;;;5043099;28;20467;-66
2023/03/18 00:35:46;;;;;;;8.50;2.83;;;11.60;1.00;;;;;;5044299;28;20417;-66
2023/03/18 00:38:19;;;;;;;8.88;3.40;;;11.60;1.00;;;;;;5042437;28;20419;-66
2023/03/18 00:41:00;;;;;;;5.95;2.90;;;11.60;1.00;;;;;;5041785;28;20434;-67
2023/03/18 00:43:31;;;;;;;7.22;3.03;;;11.60;1.00;;;;;;5041899;28;20819;-66
2023/03/18 00:45:58;;;;;;;5.45;2.80;;;11.60;1.00;;;;;;5042926;28;20417;-66
2023/03/18 00:48:26;;;;;;;7.63;2.95;;;11.60;1.00;;;;;;5044482;28;20417;-66
2023/03/18 00:50:53;;;;;;;6.72;2.97;;;11.70;1.00;;;;;;5042099;28;20422;-66
2023/03/18 00:53:20;;;;;;;7.28;3.38;;;11.60;1.00;;;;;;5046901;28;20420;-68
2023/03/18 00:55:48;;;;;;;8.23;3.20;;;11.60;1.00;;;;;;5049244;28;20421;-68
2023/03/18 00:58:14;;;;;;;5.82;2.83;;;11.60;1.00;;;;;;5042699;28;20461;-66
2023/03/18 01:00:42;;;;;;;7.90;3.00;;;11.70;1.00;;;;;;5041161;28;20452;-65
2023/03/18 01:03:08;;;;;;;6.65;2.90;;;11.60;1.00;;;;;;5042852;28;20416;-66
2023/03/18 01:05:37;;;;;;;6.33;3.27;;;11.60;1.00;;;;;;5043853;28;20474;-67
2023/03/18 01:08:04;;;;;;;5.57;2.90;;;11.60;1.00;;;;;;5041379;28;20422;-66
2023/03/18 01:10:30;;;;;;;8.43;3.30;;;11.60;1.00;;;;;;5042176;28;20423;-67
2023/03/18 01:13:00;;;;;;;6.18;3.10;;;11.60;1.00;;;;;;5043334;28;20815;-66
2023/03/18 01:15:27;;;;;;;6.18;3.08;;;11.50;1.00;;;;;;5043108;28;20840;-66
2023/03/18 01:17:55;;;;;;;6.78;2.95;;;11.50;1.00;;;;;;5042336;28;20418;-66
2023/03/18 01:20:23;;;;;;;6.82;3.47;;;11.40;1.00;;;;;;5045616;28;20419;-66
2023/03/18 01:22:50;;;;;;;8.43;3.22;;;11.50;1.00;;;;;;5042688;28;20422;-66
2023/03/18 01:25:17;;;;;;;8.90;3.33;;;11.40;1.00;;;;;;5046208;28;20423;-67
2023/03/18 01:27:44;;;;;;;7.93;3.25;;;11.40;1.00;;;;;;5041611;28;20801;-66
2023/03/18 01:30:13;;;;;;;9.05;3.00;;;11.30;1.00;;;;;;5043563;28;20443;-67
2023/03/18 01:32:42;;;;;;;6.68;3.10;;;11.30;1.00;;;;;;5041728;28;20476;-67
2023/03/18 01:35:11;;;;;;;7.68;3.00;;;11.40;1.00;;;;;;5041429;28;20483;-67
2023/03/18 01:37:37;;;;;;;9.43;3.50;;;11.40;1.00;;;;;;5043298;28;20471;-66
2023/03/18 01:40:06;;;;;;;8.18;3.30;;;11.40;1.00;;;;;;5043918;28;20459;-66
2023/03/18 01:42:34;;;;;;;8.98;3.47;;;11.40;1.00;;;;;;5032620;28;20485;-66
2023/03/18 01:45:16;;;;;;;7.20;3.35;;;11.50;1.00;;;;;;5032763;28;20829;-66
2023/03/18 01:47:45;;;;;;;6.50;3.43;;;11.50;1.00;;;;;;5038905;28;20873;-67
2023/03/18 01:50:13;;;;;;;8.30;3.33;;;11.50;1.00;;;;;;5040633;28;20554;-66
2023/03/18 01:52:41;;;;;;;9.53;3.30;;;11.50;1.00;;;;;;5041435;28;20415;-66
2023/03/18 01:55:12;;;;;;;6.80;3.45;;;11.60;1.00;;;;;;5045402;28;20418;-66
2023/03/18 01:57:40;;;;;;;6.78;3.35;;;11.60;1.00;;;;;;5045459;28;20429;-66
2023/03/18 02:00:09;;;;;;;8.50;3.50;;;11.70;1.00;;;;;;5040353;28;20419;-66
2023/03/18 02:02:39;;;;;;;6.60;3.30;;;11.60;1.00;;;;;;5041620;28;20504;-66
2023/03/18 02:05:10;;;;;;;6.90;3.20;;;11.70;1.00;;;;;;5042747;28;20502;-67
2023/03/18 02:07:37;;;;;;;7.47;3.10;;;11.70;1.00;;;;;;5041797;28;20826;-66
2023/03/18 02:10:09;;;;;;;8.37;3.17;;;11.60;1.00;;;;;;5040622;28;20461;-67
2023/03/18 02:12:38;;;;;;;5.22;2.88;;;11.60;12.00;;;;;;5041254;28;20419;-67
2023/03/18 02:15:12;;;;;;;7.30;2.90;;;11.60;35.30;;;;;;5042826;28;20421;-66
2023/03/18 02:17:43;;;;;;;8.50;3.17;;;11.70;45.40;;;;;;5038932;28;20426;-66
2023/03/18 02:20:19;;;;;;;6.57;3.05;;;11.60;59.90;;;;;;5040902;28;20411;-67
2023/03/18 02:22:49;;;;;;;6.68;3.05;;;11.70;71.20;;;;;;5040164;28;20445;-67
2023/03/18 02:25:26;;;;;;;8.35;2.97;;;11.60;75.10;;;;;;5048287;28;21450;-67
2023/03/18 02:27:59;;;;;;;6.47;3.33;;;11.80;71.90;;;;;;5031296;28;20410;-66
2023/03/18 02:30:28;;;;;;;9.07;3.45;;;11.90;70.20;;;;;;5031742;28;20450;-66
2023/03/18 02:32:57;;;;;;;5.43;2.90;;;11.80;76.60;;;;;;5031007;28;20916;-66
2023/03/18 02:35:25;;;;;;;6.03;3.10;;;11.80;77.80;;;;;;5031153;28;20468;-66
2023/03/18 02:37:51;;;;;;;7.15;3.13;;;11.90;72.30;;;;;;5034724;28;20417;-66
2023/03/18 02:40:22;;;;;;;7.17;3.10;;;11.80;76.30;;;;;;5042232;28;20471;-66
2023/03/18 02:42:49;;;;;;;7.10;3.17;;;11.90;80.80;;;;;;5040159;28;20415;-67
2023/03/18 02:45:35;;;;;;;7.43;3.50;;;11.90;68.30;;;;;;5040357;28;20832;-66
2023/03/18 02:48:04;;;;;;;6.40;3.22;;;11.90;61.70;;;;;;5042340;28;20409;-66
2023/03/18 02:50:31;;;;;;;9.38;3.58;;;11.80;64.60;;;;;;5041954;28;20411;-67
2023/03/18 02:53:00;;;;;;;6.47;3.13;;;11.70;74.50;;;;;;5043077;28;20945;-66
2023/03/18 02:55:26;;;;;;;8.43;3.38;;;11.80;75.40;;;;;;5055657;28;20424;-66
2023/03/18 02:57:53;;;;;;;6.32;2.80;;;11.80;70.70;;;;;;5045866;28;20418;-66
2023/03/18 03:00:22;;;;;;;9.50;3.40;;;11.70;69.10;;;;;;5039407;28;20411;-66
2023/03/18 03:02:49;;;;;;;8.57;3.13;;;11.80;71.00;;;;;;5040887;28;20787;-66
2023/03/18 03:05:16;;;;;;;6.40;3.20;;;11.70;73.50;;;;;;5041905;28;20425;-67
2023/03/18 03:07:43;;;;;;;7.50;3.63;;;11.70;75.80;;;;;;5039954;28;20410;-66
2023/03/18 03:10:11;;;;;;;7.03;3.05;;;11.60;77.90;;;;;;5041719;28;20421;-67
2023/03/18 03:12:38;;;;;;;7.47;3.15;;;11.60;79.50;;;;;;5046274;28;20429;-66
2023/03/18 03:15:06;;;;;;;7.10;3.28;;;11.50;82.70;;;;;;5044571;28;20500;-66
2023/03/18 03:17:35;;;;;;;7.35;3.22;;;11.30;93.40;;;;;;5043527;28;20411;-67
2023/03/18 03:20:04;;;;;;;6.82;3.30;;;11.30;99.90;;;;;;5045284;28;20876;-67
2023/03/18 03:22:31;;;;;;;7.78;3.47;;;11.30;99.90;;;;;;5046023;28;20504;-67
2023/03/18 03:24:58;;;;;;;9.90;3.78;;;11.20;99.90;;;;;;5053877;28;20425;-67
2023/03/18 03:27:25;;;;;;;8.88;3.85;;;11.10;99.90;;;;;;5046823;28;20504;-67
2023/03/18 03:29:51;;;;;;;7.32;3.88;;;11.00;99.90;;;;;;5047158;28;20413;-67
2023/03/18 03:32:18;;;;;;;7.68;3.88;;;10.80;99.90;;;;;;5045368;28;20861;-67
2023/03/18 03:34:46;;;;;;;6.80;3.67;;;10.90;99.90;;;;;;5046145;28;20406;-66
2023/03/18 03:37:13;;;;;;;8.10;3.55;;;11.00;99.90;;;;;;5044095;28;20419;-66
2023/03/18 03:39:40;;;;;;;7.53;4.10;;;11.00;99.90;;;;;;5043864;28;20415;-67
2023/03/18 03:42:07;;;;;;;9.18;4.07;;;10.90;99.90;;;;;;5046278;28;20409;-67
2023/03/18 03:44:34;;;;;;;9.07;4.00;;;11.00;99.90;;;;;;5045586;28;20449;-66
2023/03/18 03:47:01;;;;;;;8.90;3.80;;;11.00;99.90;;;;;;5044110;28;20419;-67
2023/03/18 03:49:28;;;;;;;9.60;3.92;;;11.00;99.90;;;;;;5045739;28;20447;-66
2023/03/18 03:51:56;;;;;;;8.65;4.30;;;11.00;99.90;;;;;;5046223;28;20413;-67
2023/03/18 03:54:24;;;;;;;8.20;3.85;;;10.90;99.90;;;;;;5048766;28;20801;-67
2023/03/18 03:56:51;;;;;;;8.73;4.10;;;11.00;99.90;;;;;;5043639;28;20419;-66
2023/03/18 03:59:17;;;;;;;7.40;4.22;;;10.90;99.90;;;;;;5048173;28;20417;-67
2023/03/18 04:01:45;;;;;;;6.85;4.18;;;10.80;99.90;;;;;;5046305;28;21155;-67
2023/03/18 04:04:12;;;;;;;8.88;4.20;;;10.80;99.90;;;;;;5046074;28;20423;-67
2023/03/18 04:06:38;;;;;;;8.85;4.60;;;10.80;99.90;;;;;;5044916;28;20418;-67
2023/03/18 04:09:06;;;;;;;9.57;4.38;;;10.70;99.90;;;;;;5044586;28;20414;-67
2023/03/18 04:11:33;;;;;;;8.80;4.60;;;10.70;99.90;;;;;;5042839;28;20411;-67
2023/03/18 04:14:00;;;;;;;7.82;4.88;;;10.60;99.90;;;;;;5044154;28;20850;-66
2023/03/18 04:16:27;;;;;;;8.02;4.47;;;10.70;99.90;;;;;;5045256;28;20413;-67
2023/03/18 04:18:54;;;;;;;9.38;5.10;;;10.70;99.90;;;;;;5043529;28;20892;-67
2023/03/18 04:21:21;;;;;;;9.80;4.80;;;10.50;99.90;;;;;;5042767;28;20411;-66
2023/03/18 04:23:47;;;;;;;7.18;5.20;;;10.60;99.90;;;;;;5049455;28;20413;-66
2023/03/18 04:26:15;;;;;;;10.48;5.07;;;10.50;99.90;;;;;;5047969;28;20425;-66
2023/03/18 04:28:42;;;;;;;8.93;5.40;;;10.50;99.90;;;;;;5045175;28;20424;-67
2023/03/18 04:31:09;;;;;;;8.98;5.85;;;10.40;99.90;;;;;;5045124;28;20468;-66
2023/03/18 04:33:36;;;;;;;9.38;6.10;;;10.40;99.90;;;;;;5043971;28;20476;-67
2023/03/18 04:36:02;;;;;;;11.25;5.78;;;10.40;99.90;;;;;;5045907;28;20409;-66
2023/03/18 04:38:29;;;;;;;7.32;5.35;;;10.50;99.90;;;;;;5044686;28;20912;-66
2023/03/18 04:40:56;;;;;;;10.52;5.80;;;10.50;99.90;;;;;;5042551;28;20415;-67
2023/03/18 04:43:24;;;;;;;10.25;5.47;;;10.40;99.90;;;;;;5044379;28;20417;-66
2023/03/18 04:45:51;;;;;;;10.68;6.30;;;10.40;99.90;;;;;;5044477;28;20429;-66
2023/03/18 04:48:18;;;;;;;12.77;6.35;;;10.40;99.90;;;;;;5032999;28;20506;-67
2023/03/18 04:50:45;;;;;;;10.27;5.82;;;10.40;99.90;;;;;;5033009;28;20886;-67
2023/03/18 04:53:11;;;;;;;10.70;6.20;;;10.50;99.90;;;;;;5034478;28;20419;-67
2023/03/18 04:55:39;;;;;;;9.40;5.60;;;10.60;99.90;;;;;;5041683;28;20887;-67
2023/03/18 04:58:06;;;;;;;9.83;6.10;;;10.60;99.90;;;;;;5044398;28;20423;-68
2023/03/18 05:00:34;;;;;;;11.00;6.10;;;10.70;99.90;;;;;;5045146;28;20411;-67
2023/03/18 05:03:02;;;;;;;8.05;5.85;;;10.70;99.90;;;;;;5042876;28;20868;-67
2023/03/18 05:05:28;;;;;;;8.52;5.85;;;10.70;99.90;;;;;;5044206;28;20842;-67
2023/03/18 05:07:55;;;;;;;7.72;5.90;;;10.70;99.90;;;;;;5043159;28;20466;-67
2023/03/18 05:10:22;;;;;;;11.13;6.40;;;10.80;99.90;;;;;;5042404;28;20415;-67
2023/03/18 05:12:49;;;;;;;9.13;6.13;;;10.90;99.90;;;;;;5044496;28;20906;-66
2023/03/18 05:15:16;;;;;;;10.48;6.20;;;10.90;99.90;;;;;;5044687;28;20417;-67
2023/03/18 05:17:44;;;;;;;9.45;5.63;;;11.00;99.90;;;;;;5045298;28;20412;-66
2023/03/18 05:20:12;;;;;;;10.30;5.40;;;11.00;99.90;;;;;;5043643;28;20417;-67
2023/03/18 05:22:39;;;;;;;10.13;5.85;;;11.10;99.90;;;;;;5045920;28;20425;-67
2023/03/18 05:25:07;;;;;;;8.90;5.55;;;11.00;99.90;;;;;;5055286;28;20460;-66
2023/03/18 05:27:34;;;;;;;8.90;5.60;;;11.00;99.90;;;;;;5033672;28;20956;-66
2023/03/18 05:30:01;;;;;;;9.48;5.75;;;11.00;99.90;;;;;;5032984;28;20426;-67
2023/03/18 05:32:27;;;;;;;10.25;5.60;;;11.00;99.90;;;;;;5031710;28;20434;-67
2023/03/18 05:34:55;;;;;;;10.10;5.80;;;11.00;99.90;;;;;;5033282;28;20442;-67
2023/03/18 05:37:22;;;;;;;9.13;5.75;;;11.00;99.90;;;;;;5037360;28;20443;-66
2023/03/18 05:39:49;;;;;;;7.43;5.40;;;11.10;99.90;;;;;;5044291;28;20425;-66
2023/03/18 05:42:16;;;;;;;7.82;5.18;;;11.00;99.90;;;;;;5046974;28;20847;-67
2023/03/18 05:44:43;;;;;;;8.23;5.03;;;11.20;99.90;;;;;;5049326;28;20417;-66
2023/03/18 05:47:11;;;;;;;7.72;4.90;;;11.20;99.90;;;;;;5041203;28;20411;-67
2023/03/18 05:49:38;;;;;;;11.35;5.45;;;11.20;99.90;;;;;;5042688;28;20481;-67
2023/03/18 05:52:06;;;;;;;9.20;5.22;;;11.20;99.90;;;;;;5043329;28;20777;-66
2023/03/18 05:54:32;;;;;;;8.17;5.13;;;11.30;99.90;;;;;;5046388;28;20413;-67
2023/03/18 05:56:59;;;;;;;7.15;5.20;;;11.40;99.90;;;;;;5047185;28;20467;-66
2023/03/18 05:59:26;;;;;;;9.52;5.45;;;11.30;99.90;;;;;;5046273;28;20430;-67
2023/03/18 06:01:53;;;;;;;7.55;4.80;;;11.20;99.90;;;;;;5042543;28;20423;-67
2023/03/18 06:04:20;;;;;;;8.00;5.03;;;11.20;99.90;;;;;;5043432;28;20425;-66
2023/03/18 06:06:47;;;;;;;9.30;5.22;;;11.20;99.90;;;;;;5041709;28;20427;-67
2023/03/18 06:09:16;;;;;;;7.82;5.10;;;11.20;99.90;;;;;;5041522;28;20419;-68
2023/03/18 06:11:43;;;;;;;7.63;5.30;;;11.20;99.90;;;;;;5032047;28;20445;-67
2023/03/18 06:14:10;;;;;;;9.57;5.88;;;11.20;99.90;;;;;;5032163;28;20419;-67
2023/03/18 06:16:37;;;;;;;9.98;5.55;;;11.20;99.90;;;;;;5031499;28;20877;-67
2023/03/18 06:19:05;;;;;;;10.00;6.25;;;11.30;99.90;;;;;;5031975;28;20419;-67
2023/03/18 06:21:32;;;;;;;8.73;6.00;;;11.30;99.90;;;;;;5031579;28;20423;-67
2023/03/18 06:23:59;;;;;;;9.10;6.00;;;11.20;99.90;;;;;;5045838;28;20413;-66
2023/03/18 06:26:27;;;;;;;10.17;5.80;;;11.20;99.90;;;;;;5047138;28;20488;-66
2023/03/18 06:28:55;;;;;;;12.70;6.28;;;11.10;99.90;;;;;;5031521;28;20407;-66
2023/03/18 06:31:21;;;;;;;10.73;6.28;;;11.20;99.90;;;;;;5031583;28;20450;-66
2023/03/18 06:33:48;;;;;;;8.67;5.77;;;11.30;99.90;;;;;;5031527;28;20914;-66
2023/03/18 06:36:16;;;;;;;8.07;5.63;;;11.30;99.90;;;;;;5031410;28;20411;-67
2023/03/18 06:38:43;;;;;;;11.15;6.20;;;11.40;99.90;;;;;;5038818;28;20508;-66
2023/03/18 06:41:10;;;;;;;9.80;6.05;;;11.40;99.90;;;;;;5039002;28;20409;-67
2023/03/18 06:43:38;;;;;;;9.43;5.60;;;11.20;99.90;;;;;;5041447;28;20914;-66
2023/03/18 06:46:05;;;;;;;9.18;6.00;;;11.30;99.90;;;;;;5040452;28;20430;-67
2023/03/18 06:48:33;;;;;;;11.05;5.85;;;11.30;99.90;;;;;;5040988;28;21095;-66
2023/03/18 06:51:00;;;;;;;9.50;5.68;;;11.30;99.90;;;;;;5042623;28;20503;-66
2023/03/18 06:53:28;;;;;;;10.48;5.82;;;11.40;99.90;;;;;;5044871;28;20436;-67
2023/03/18 06:55:55;;;;;;;10.02;5.90;;;11.40;99.90;;;;;;5052476;28;20425;-67
2023/03/18 06:58:23;;;;;;;8.40;5.70;;;11.30;99.90;;;;;;5031251;28;20430;-66
2023/03/18 07:00:51;;;;;;;8.52;5.88;;;11.30;99.90;;;;;;5031067;28;20914;-67
2023/03/18 07:03:18;;;;;;;9.98;6.07;;;11.30;99.90;;;;;;5030713;28;20411;-67
2023/03/18 07:05:45;;;;;;;9.93;5.80;;;11.40;99.90;;;;;;5031007;28;20433;-67
2023/03/18 07:08:12;;;;;;;8.93;5.75;;;11.50;99.90;;;;;;5031243;28;20418;-66
2023/03/18 07:10:39;;;;;;;10.60;6.05;;;11.50;99.90;;;;;;5041777;28;20413;-67
2023/03/18 07:13:07;;;;;;;9.88;5.78;;;11.60;99.90;;;;;;5041524;28;20421;-67
2023/03/18 07:15:34;;;;;;;8.38;5.68;;;11.60;99.90;;;;;;5040521;28;20427;-67
2023/03/18 07:18:03;;;;;;;8.45;5.45;;;11.60;99.90;;;;;;5040625;28;20987;-67
2023/03/18 07:20:31;;;;;;;11.13;5.60;;;11.60;99.90;;;;;;5042125;28;20428;-67
2023/03/18 07:22:58;;;;;;;7.25;5.55;;;11.70;99.90;;;;;;5041157;28;20411;-67
2023/03/18 07:25:24;;;;;;;7.87;5.10;;;11.80;99.90;;;;;;5056812;28;20419;-66
2023/03/18 07:27:52;;;;;;;9.63;5.22;;;11.90;99.90;;;;;;5041777;28;20764;-68
2023/03/18 07:30:20;;;;;;;7.35;5.10;;;11.90;99.90;;;;;;5041211;28;20417;-67
2023/03/18 07:32:46;;;;;;;9.02;5.07;;;11.80;99.90;;;;;;5039065;28;20481;-67
2023/03/18 07:35:15;;;;;;;7.07;5.10;;;12.00;99.90;;;;;;5040192;28;20443;-67
2023/03/18 07:37:42;;;;;;;7.50;4.85;;;12.00;99.90;;;;;;5041405;28;20409;-67
2023/03/18 07:40:10;;;;;;;8.40;5.05;;;12.10;99.90;;;;;;5039919;28;20418;-66
2023/03/18 07:42:37;;;;;;;7.60;4.80;;;12.20;99.90;;;;;;5042978;28;20787;-67
2023/03/18 07:45:05;;;;;;;8.27;5.07;;;12.10;99.90;;;;;;5040132;28;20509;-67
2023/03/18 07:47:31;;;;;;;7.35;4.95;;;12.10;99.90;;;;;;5039774;28;20430;-67
2023/03/18 07:49:59;;;;;;;8.18;5.30;;;12.30;99.90;;;;;;5041367;28;20417;-67
2023/03/18 07:52:28;;;;;;;7.85;5.25;;;12.30;99.90;;;;;;5040460;28;20509;-67
2023/03/18 07:54:55;;;;;;;6.68;4.85;;;12.40;99.90;;;;;;5051790;28;20508;-67
2023/03/18 07:57:22;;;;;;;6.95;4.93;;;12.40;99.90;;;;;;5046880;28;20413;-67
2023/03/18 07:59:49;;;;;;;8.70;4.65;;;12.50;99.90;;;;;;5044981;28;20409;-67
2023/03/18 08:02:16;;;;;;;6.22;4.43;;;12.50;99.90;;;;;;5043077;28;20800;-66
2023/03/18 08:04:45;;;;;;;7.00;4.55;;;12.50;99.90;;;;;;5043360;28;20422;-67
2023/03/18 08:07:12;;;;;;;7.88;4.47;;;12.70;99.90;;;;;;5045082;28;20429;-67
2023/03/18 08:09:40;;;;;;;7.82;4.35;;;12.90;99.90;;;;;;5044187;28;20465;-67
2023/03/18 08:12:08;;;;;;;5.07;4.10;;;13.10;90.40;;;;;;5042319;28;20472;-67
2023/03/18 08:14:35;;;;;;;6.28;4.60;;;13.30;74.00;;;;;;5043572;28;20484;-67
2023/03/18 08:17:02;;;;;;;5.78;4.15;;;13.40;64.60;;;;;;5044656;28;20500;-67
2023/03/18 08:19:29;;;;;;;6.03;4.00;;;13.40;41.20;;;;;;5042092;28;20419;-68
2023/03/18 08:21:56;;;;;;;5.95;4.05;;;13.60;25.10;;;;;;5042748;28;20419;-67
2023/03/18 08:24:23;;;;;;;6.23;4.10;;;13.70;10.90;;;;;;5052483;28;20483;-68
2023/03/18 08:26:51;;;;;;;5.95;3.97;;;13.60;11.30;;;;;;5044334;28;20437;-67
2023/03/18 08:29:18;;;;;;;6.40;3.95;;;13.60;19.00;;;;;;5044673;28;20424;-67
2023/03/18 08:31:45;;;;;;;5.88;3.70;;;13.80;7.80;;;;;;5043475;28;20469;-68
2023/03/18 08:34:12;;;;;;;6.57;3.88;;;13.90;1.00;;;;;;5042347;28;20429;-67
2023/03/18 08:36:41;;;;;;;6.47;3.80;;;14.00;1.80;;;;;;5044152;28;20421;-67
2023/03/18 08:39:08;;;;;;;5.78;3.50;;;14.30;1.00;;;;;;5043218;28;20453;-68
2023/03/18 08:41:35;;;;;;;7.35;3.88;;;14.50;1.00;;;;;;5041875;28;20780;-68
2023/03/18 08:44:05;;;;;;;5.18;3.85;;;14.30;1.00;;;;;;5043283;28;20420;-68
2023/03/18 08:46:32;;;;;;;5.95;3.60;;;14.20;1.00;;;;;;5043693;28;20461;-67
2023/03/18 08:48:59;;;;;;;6.85;3.75;;;14.20;1.00;;;;;;5042366;28;20422;-67
2023/03/18 08:51:26;;;;;;;5.13;3.83;;;14.20;1.00;;;;;;5042052;28;20453;-67
2023/03/18 08:53:53;;;;;;;7.82;3.50;;;14.30;1.00;;;;;;5048772;28;20900;-67
2023/03/18 08:56:19;;;;;;;6.95;3.70;;;14.20;1.00;;;;;;5048338;28;20941;-67
2023/03/18 08:58:47;;;;;;;5.90;3.85;;;14.50;1.00;;;;;;5043530;28;20822;-67
2023/03/18 09:01:15;;;;;;;5.25;3.90;;;14.80;1.00;;;;;;5041836;28;20501;-66
2023/03/18 09:03:42;;;;;;;5.80;3.70;;;14.50;1.00;;;;;;5041315;28;20851;-66
2023/03/18 09:06:09;;;;;;;4.20;3.60;;;14.40;1.00;;;;;;5032504;28;20517;-66
2023/03/18 09:08:37;;;;;;;6.20;3.22;;;14.50;1.00;;;;;;5031248;28;20465;-67
2023/03/18 09:11:06;;;;;;;5.72;3.17;;;14.60;1.00;;;;;;5032475;28;20467;-67
2023/03/18 09:13:33;;;;;;;6.05;3.08;;;14.50;1.00;;;;;;5032605;28;20473;-67
2023/03/18 09:16:00;;;;;;;4.95;3.38;;;14.60;1.00;;;;;;5040246;28;20409;-68
2023/03/18 09:18:29;;;;;;;5.10;3.42;;;14.80;99.90;;;;;;5042000;28;20441;-67
2023/03/18 09:20:56;;;;;;;4.50;3.20;;;14.50;87.60;;;;;;5041139;28;20999;-67
2023/03/18 09:23:25;;;;;;;6.13;3.78;;;14.60;1.00;;;;;;5044895;28;20414;-67
2023/03/18 09:25:53;;;;;;;5.88;3.70;;;14.30;1.00;;;;;;5053490;28;20468;-67
2023/03/18 09:28:20;;;;;;;5.43;3.67;;;14.00;99.90;;;;;;5040982;28;20415;-67
2023/03/18 09:30:47;;;;;;;5.07;3.60;;;13.80;99.90;;;;;;5041790;28;20901;-68
2023/03/18 09:33:14;;;;;;;5.45;3.80;;;13.80;99.90;;;;;;5043169;28;20523;-67
2023/03/18 09:35:43;;;;;;;7.32;3.50;;;13.70;99.90;;;;;;5041388;28;20890;-68
2023/03/18 09:38:14;;;;;;;4.93;4.00;;;13.90;99.90;;;;;;5040662;28;20484;-67
2023/03/18 09:40:51;;;;;;;5.15;4.07;;;14.10;1.00;;;;;;5042084;28;20412;-67
2023/03/18 09:43:31;;;;;;;6.13;3.63;;;14.20;99.90;;;;;;5031988;28;20413;-67
2023/03/18 09:46:08;;;;;;;5.97;4.40;;;14.30;1.00;;;;;;5031800;28;20808;-67
2023/03/18 09:48:56;;;;;;;4.78;3.85;;;14.10;99.90;;;;;;5031892;28;20563;-67
2023/03/18 09:51:38;;;;;;;4.72;3.70;;;14.30;99.90;;;;;;5031755;28;20422;-68
2023/03/18 09:54:11;;;;;;;4.27;3.17;;;14.30;99.90;;;;;;5046356;28;20421;-67
2023/03/18 09:56:38;;;;;;;4.65;3.17;;;14.60;99.90;;;;;;5046384;28;20461;-67
2023/03/18 09:59:15;;;;;;;5.22;3.75;;;14.60;99.90;;;;;;5040645;28;20547;-67
2023/03/18 10:01:46;;;;;;;5.43;3.63;;;14.40;1.00;;;;;;5040321;28;20965;-68
2023/03/18 10:04:17;;;;;;;4.28;3.40;;;14.30;1.00;;;;;;5041584;28;20510;-68
2023/03/18 10:06:47;;;;;;;4.07;3.20;;;14.40;99.90;;;;;;5040711;28;20434;-67
2023/03/18 10:09:19;;;;;;;4.47;3.38;;;14.50;99.90;;;;;;5042709;28;20450;-68
2023/03/18 10:11:48;;;;;;;5.75;3.80;;;14.80;99.90;;;;;;5043584;28;20853;-68
2023/03/18 10:14:31;;;;;;;6.15;3.95;;;15.00;41.40;;;;;;5041735;28;20456;-67
2023/03/18 10:17:06;;;;;;;5.40;4.10;;;15.20;99.90;;;;;;5041536;28;20923;-68
2023/03/18 10:19:34;;;;;;;5.38;4.05;;;15.30;99.90;;;;;;5031020;28;21085;-68
2023/03/18 10:22:18;;;;;;;5.70;3.90;;;15.20;1.00;;;;;;5031869;28;20468;-68
2023/03/18 10:24:53;;;;;;;6.10;3.53;;;15.30;68.20;;;;;;5052430;28;20413;-68
2023/03/18 10:27:26;;;;;;;4.03;3.13;;;15.30;99.90;;;;;;5051176;28;20939;-67
2023/03/18 10:30:01;;;;;;;4.38;3.00;;;15.70;99.90;;;;;;5039606;28;20476;-67
2023/03/18 10:32:39;;;;;;;4.57;2.70;;;15.80;1.00;;;;;;5042412;28;20415;-68
2023/03/18 10:35:18;;;;;;;4.65;2.40;;;15.90;99.90;;;;;;5040761;28;20461;-68
2023/03/18 10:37:53;;;;;;;3.78;2.58;;;15.60;1.00;;;;;;5040900;28;20423;-68
2023/03/18 10:40:20;;;;;;;3.20;2.50;;;15.60;99.90;;;;;;5040033;28;20464;-67
2023/03/18 10:42:50;;;;;;;3.05;2.20;;;15.40;99.90;;;;;;5041373;28;20413;-68
2023/03/18 10:45:22;;;;;;;2.50;2.30;;;15.50;99.90;;;;;;5042623;28;20417;-68
2023/03/18 10:47:56;;;;;;;4.82;2.30;;;15.40;99.90;;;;;;5041675;28;20461;-68
2023/03/18 10:50:31;;;;;;;3.37;2.30;;;15.60;1.00;;;;;;5041971;28;20552;-67
2023/03/18 10:53:07;;;;;;;3.78;2.50;;;15.80;1.00;;;;;;5042278;28;20417;-68
2023/03/18 10:55:39;;;;;;;3.95;2.70;;;15.70;99.90;;;;;;5041524;28;20413;-68
2023/03/18 10:58:16;;;;;;;3.28;2.58;;;15.80;99.90;;;;;;5043722;28;20459;-67
2023/03/18 11:00:43;;;;;;;4.05;2.72;;;16.00;99.90;;;;;;5044506;28;20524;-68
2023/03/18 11:03:22;;;;;;;4.03;2.63;;;16.20;99.90;;;;;;5048174;28;20504;-68
2023/03/18 11:05:51;;;;;;;3.78;2.55;;;16.00;99.90;;;;;;5044263;28;20467;-68
2023/03/18 11:08:34;;;;;;;4.57;2.75;;;16.40;67.00;;;;;;5042972;28;20451;-68
2023/03/18 11:11:33;;;;;;;3.53;2.27;;;16.50;1.00;;;;;;5041927;28;20405;-68
2023/03/18 11:14:02;;;;;;;4.88;2.30;;;16.70;99.90;;;;;;4978958;28;20416;-68
2023/03/18 11:16:33;;;;;;;3.10;2.40;;;16.80;99.90;;;;;;5026699;28;20902;-68
2023/03/18 11:19:21;;;;;;;2.72;2.17;;;16.70;99.90;;;;;;5043380;28;20418;-68
2023/03/18 11:21:49;;;;;;;3.45;2.38;;;17.00;99.90;;;;;;5028514;28;20423;-68
2023/03/18 11:24:34;;;;;;;3.45;2.35;;;17.30;99.90;;;;;;5042618;28;20418;-67
2023/03/18 11:27:03;;;;;;;6.10;2.60;;;17.40;99.90;;;;;;5049147;28;20425;-68
2023/03/18 11:29:32;;;;;;;4.15;2.20;;;17.10;97.90;;;;;;5047211;28;20967;-63
2023/03/18 11:32:00;;;;;;;4.55;2.50;;;17.20;99.90;;;;;;5050411;28;20417;-66
2023/03/18 11:34:29;;;;;;;3.90;2.40;;;17.10;99.90;;;;;;5050645;28;20418;-66
2023/03/18 11:37:00;;;;;;;2.90;2.30;;;17.10;99.90;;;;;;5054001;28;20434;-65
2023/03/18 11:39:30;;;;;;;3.50;1.90;;;17.10;99.90;;;;;;5048344;28;20782;-65
2023/03/18 11:41:58;;;;;;;3.33;2.00;;;17.20;1.00;;;;;;5051403;28;20749;-63
2023/03/18 11:44:29;;;;;;;4.07;2.10;;;17.20;1.00;;;;;;5047842;28;20414;-64
2023/03/18 11:47:02;;;;;;;3.40;2.00;;;17.20;8.40;;;;;;5048474;28;20561;-64
2023/03/18 11:49:30;;;;;;;3.55;2.28;;;17.00;1.00;;;;;;5044471;28;20496;-64
2023/03/18 11:52:12;;;;;;;4.20;2.10;;;17.00;1.00;;;;;;5042451;28;20449;-64
2023/03/18 11:55:01;;;;;;;3.47;1.80;;;17.30;71.90;;;;;;5052823;28;20495;-63
2023/03/18 11:57:34;;;;;;;4.03;1.90;;;17.40;1.00;;;;;;5048956;28;20403;-64
2023/03/18 12:00:19;;;;;;;3.37;2.00;;;17.40;1.00;;;;;;5042389;28;20419;-64
2023/03/18 12:03:08;;;;;;;3.00;1.70;;;17.10;1.00;;;;;;5042362;28;20419;-64
2023/03/18 12:05:47;;;;;;;3.70;1.77;;;17.30;1.00;;;;;;5042335;28;20415;-63
2023/03/18 12:08:23;;;;;;;2.90;1.80;;;17.20;1.00;;;;;;5042276;28;20598;-64
2023/03/18 12:11:05;;;;;;;2.33;1.70;;;17.30;1.00;;;;;;5042567;28;20805;-64
2023/03/18 12:13:43;;;;;;;2.88;1.52;;;17.20;1.00;;;;;;5041323;28;20434;-66
2023/03/18 12:16:17;;;;;;;3.70;1.70;;;17.20;1.00;;;;;;5043205;28;20411;-64
2023/03/18 12:18:57;;;;;;;3.08;1.88;;;17.00;1.00;;;;;;5033539;28;20422;-65
2023/03/18 12:21:38;;;;;;;3.17;2.00;;;17.10;1.00;;;;;;5033335;28;20419;-64
2023/03/18 12:24:26;;;;;;;3.35;1.83;;;17.10;1.00;;;;;;5047502;28;20428;-65
2023/03/18 12:27:03;;;;;;;3.17;1.92;;;17.00;1.00;;;;;;5044111;28;20409;-64
2023/03/18 12:30:00;;;;;;;3.10;2.50;;;17.20;1.00;;;;;;5044193;28;20463;-64
2023/03/18 12:32:30;;;;;;;3.42;1.95;;;16.90;1.00;;;;;;5012518;28;20973;-63
2023/03/18 12:35:13;;;;;;;2.53;1.70;;;17.10;1.00;;;;;;5040920;28;20502;-64
2023/03/18 12:37:53;;;;;;;2.72;1.58;;;17.40;1.00;;;;;;5041260;28;20426;-64
2023/03/18 12:40:35;;;;;;;2.60;1.67;;;17.30;1.00;;;;;;5041307;28;20762;-64
2023/03/18 12:43:28;;;;;;;2.20;1.60;;;17.20;99.90;;;;;;5041168;28;20422;-64
2023/03/18 12:46:02;;;;;;;5.43;2.00;;;17.50;1.00;;;;;;5027558;28;20427;-64
2023/03/18 12:48:33;;;;;;;3.03;1.98;;;17.20;1.00;;;;;;5032293;28;20437;-65
2023/03/18 12:51:05;;;;;;;2.60;2.03;;;16.80;1.00;;;;;;5032492;28;20776;-65
2023/03/18 12:53:37;;;;;;;2.63;1.90;;;16.80;1.00;;;;;;5042710;28;20421;-62
2023/03/18 12:56:10;;;;;;;6.10;2.20;;;17.00;1.00;;;;;;5048345;28;20423;-64
2023/03/18 12:58:44;;;;;;;3.65;2.13;;;17.50;1.00;;;;;;5045725;28;20457;-66
2023/03/18 13:01:16;;;;;;;6.47;3.97;;;17.60;99.90;;;;;;5042002;28;20418;-66
2023/03/18 13:03:46;;;;;;;3.25;1.60;;;18.00;99.90;;;;;;5041788;28;20413;-65